sensor_id;sensor_type;location;lat;lon;timestamp;P1;durP1;ratioP1;P2;durP2;ratioP2
2872;SDS011;1444;49.166;7.312;2024-02-28T00:01:15;62.23;;;30.07;;
2872;SDS011;1444;49.166;7.312;2024-02-28T00:03:42;60.50;;;29.00;;
2872;SDS011;1444;49.166;7.312;2024-02-28T00:06:09;52.57;;;27.27;;
2872;SDS011;1444;49.166;7.312;2024-02-28T00:08:36;58.90;;;28.37;;
2872;SDS011;1444;49.166;7.312;2024-02-28T00:11:03;60.63;;;31.70;;
2872;SDS011;1444;49.166;7.312;2024-02-28T00:13:30;47.93;;;26.87;;
2872;SDS011;1444;49.166;7.312;2024-02-28T00:15:57;53.20;;;27.60;;
2872;SDS011;1444;49.166;7.312;2024-02-28T00:18:25;48.63;;;28.13;;
2872;SDS011;1444;49.166;7.312;2024-02-28T00:20:52;56.03;;;24.50;;
2872;SDS011;1444;49.166;7.312;2024-02-28T00:23:19;44.90;;;23.07;;
2872;SDS011;1444;49.166;7.312;2024-02-28T00:25:46;48.70;;;25.20;;
2872;SDS011;1444;49.166;7.312;2024-02-28T00:28:13;59.33;;;25.77;;
2872;SDS011;1444;49.166;7.312;2024-02-28T00:30:40;53.37;;;28.27;;
2872;SDS011;1444;49.166;7.312;2024-02-28T00:33:07;59.83;;;30.20;;
2872;SDS011;1444;49.166;7.312;2024-02-28T00:35:35;46.50;;;26.00;;
2872;SDS011;1444;49.166;7.312;2024-02-28T00:38:02;49.50;;;24.00;;
2872;SDS011;1444;49.166;7.312;2024-02-28T00:40:29;52.53;;;24.50;;
2872;SDS011;1444;49.166;7.312;2024-02-28T00:42:56;49.10;;;25.17;;
2872;SDS011;1444;49.166;7.312;2024-02-28T00:45:23;54.63;;;28.17;;
2872;SDS011;1444;49.166;7.312;2024-02-28T00:47:50;51.53;;;25.57;;
2872;SDS011;1444;49.166;7.312;2024-02-28T00:50:17;61.77;;;29.30;;
2872;SDS011;1444;49.166;7.312;2024-02-28T00:52:45;56.70;;;27.43;;
2872;SDS011;1444;49.166;7.312;2024-02-28T00:55:12;61.23;;;29.20;;
2872;SDS011;1444;49.166;7.312;2024-02-28T00:57:39;54.30;;;25.10;;
2872;SDS011;1444;49.166;7.312;2024-02-28T01:00:07;43.90;;;23.20;;
2872;SDS011;1444;49.166;7.312;2024-02-28T01:02:35;49.40;;;26.27;;
2872;SDS011;1444;49.166;7.312;2024-02-28T01:05:02;58.70;;;28.93;;
2872;SDS011;1444;49.166;7.312;2024-02-28T01:07:29;65.37;;;33.37;;
2872;SDS011;1444;49.166;7.312;2024-02-28T01:09:57;53.83;;;26.47;;
2872;SDS011;1444;49.166;7.312;2024-02-28T01:12:24;56.80;;;28.70;;
2872;SDS011;1444;49.166;7.312;2024-02-28T01:14:51;48.87;;;26.10;;
2872;SDS011;1444;49.166;7.312;2024-02-28T01:17:18;53.57;;;26.67;;
2872;SDS011;1444;49.166;7.312;2024-02-28T01:19:45;52.63;;;26.30;;
2872;SDS011;1444;49.166;7.312;2024-02-28T01:22:11;59.20;;;28.53;;
2872;SDS011;1444;49.166;7.312;2024-02-28T01:24:38;45.43;;;24.63;;
2872;SDS011;1444;49.166;7.312;2024-02-28T01:27:07;50.23;;;26.37;;
2872;SDS011;1444;49.166;7.312;2024-02-28T01:29:33;51.13;;;26.77;;
2872;SDS011;1444;49.166;7.312;2024-02-28T01:32:00;55.33;;;26.97;;
2872;SDS011;1444;49.166;7.312;2024-02-28T01:34:29;53.60;;;28.30;;
2872;SDS011;1444;49.166;7.312;2024-02-28T01:36:56;57.77;;;25.83;;
2872;SDS011;1444;49.166;7.312;2024-02-28T01:39:23;60.90;;;27.50;;
2872;SDS011;1444;49.166;7.312;2024-02-28T01:41:50;51.97;;;25.00;;
2872;SDS011;1444;49.166;7.312;2024-02-28T01:44:20;42.97;;;23.60;;
2872;SDS011;1444;49.166;7.312;2024-02-28T01:46:47;60.33;;;25.37;;
2872;SDS011;1444;49.166;7.312;2024-02-28T01:49:14;48.57;;;26.57;;
2872;SDS011;1444;49.166;7.312;2024-02-28T01:51:43;61.70;;;26.27;;
2872;SDS011;1444;49.166;7.312;2024-02-28T01:54:12;50.53;;;26.37;;
2872;SDS011;1444;49.166;7.312;2024-02-28T01:56:40;49.43;;;24.80;;
2872;SDS011;1444;49.166;7.312;2024-02-28T01:59:07;38.70;;;21.30;;
2872;SDS011;1444;49.166;7.312;2024-02-28T02:01:37;41.90;;;21.00;;
2872;SDS011;1444;49.166;7.312;2024-02-28T02:04:04;61.13;;;24.27;;
2872;SDS011;1444;49.166;7.312;2024-02-28T02:06:32;36.13;;;20.70;;
2872;SDS011;1444;49.166;7.312;2024-02-28T02:09:01;54.13;;;23.47;;
2872;SDS011;1444;49.166;7.312;2024-02-28T02:11:28;53.67;;;24.17;;
2872;SDS011;1444;49.166;7.312;2024-02-28T02:13:55;41.83;;;20.60;;
2872;SDS011;1444;49.166;7.312;2024-02-28T02:16:21;47.57;;;22.77;;
2872;SDS011;1444;49.166;7.312;2024-02-28T02:18:52;52.80;;;25.17;;
2872;SDS011;1444;49.166;7.312;2024-02-28T02:21:20;50.47;;;26.23;;
2872;SDS011;1444;49.166;7.312;2024-02-28T02:23:51;49.97;;;25.50;;
2872;SDS011;1444;49.166;7.312;2024-02-28T02:26:18;53.13;;;23.80;;
2872;SDS011;1444;49.166;7.312;2024-02-28T02:28:44;45.03;;;22.40;;
2872;SDS011;1444;49.166;7.312;2024-02-28T02:31:12;67.37;;;27.47;;
2872;SDS011;1444;49.166;7.312;2024-02-28T02:33:40;51.13;;;24.00;;
2872;SDS011;1444;49.166;7.312;2024-02-28T02:36:07;46.63;;;22.13;;
2872;SDS011;1444;49.166;7.312;2024-02-28T02:38:34;45.77;;;19.20;;
2872;SDS011;1444;49.166;7.312;2024-02-28T02:41:02;36.87;;;20.03;;
2872;SDS011;1444;49.166;7.312;2024-02-28T02:43:29;45.27;;;20.60;;
2872;SDS011;1444;49.166;7.312;2024-02-28T02:45:56;43.03;;;21.27;;
2872;SDS011;1444;49.166;7.312;2024-02-28T02:48:23;45.70;;;21.00;;
2872;SDS011;1444;49.166;7.312;2024-02-28T02:50:50;41.93;;;21.37;;
2872;SDS011;1444;49.166;7.312;2024-02-28T02:53:17;54.63;;;26.03;;
2872;SDS011;1444;49.166;7.312;2024-02-28T02:55:44;52.07;;;24.30;;
2872;SDS011;1444;49.166;7.312;2024-02-28T02:58:12;49.53;;;25.30;;
2872;SDS011;1444;49.166;7.312;2024-02-28T03:00:39;49.40;;;23.60;;
2872;SDS011;1444;49.166;7.312;2024-02-28T03:03:06;45.47;;;22.67;;
2872;SDS011;1444;49.166;7.312;2024-02-28T03:05:33;45.57;;;20.63;;
2872;SDS011;1444;49.166;7.312;2024-02-28T03:08:00;45.20;;;21.30;;
2872;SDS011;1444;49.166;7.312;2024-02-28T03:10:27;43.27;;;20.80;;
2872;SDS011;1444;49.166;7.312;2024-02-28T03:12:54;93.87;;;27.07;;
2872;SDS011;1444;49.166;7.312;2024-02-28T03:15:25;76.17;;;27.43;;
2872;SDS011;1444;49.166;7.312;2024-02-28T03:17:58;112.37;;;33.50;;
2872;SDS011;1444;49.166;7.312;2024-02-28T03:20:25;372.50;;;50.07;;
2872;SDS011;1444;49.166;7.312;2024-02-28T03:22:52;295.93;;;47.77;;
2872;SDS011;1444;49.166;7.312;2024-02-28T03:25:18;160.70;;;32.70;;
2872;SDS011;1444;49.166;7.312;2024-02-28T03:27:45;351.60;;;50.47;;
2872;SDS011;1444;49.166;7.312;2024-02-28T03:30:12;348.03;;;53.53;;
2872;SDS011;1444;49.166;7.312;2024-02-28T03:32:40;66.13;;;25.90;;
2872;SDS011;1444;49.166;7.312;2024-02-28T03:35:07;62.73;;;27.33;;
2872;SDS011;1444;49.166;7.312;2024-02-28T03:37:34;200.77;;;39.70;;
2872;SDS011;1444;49.166;7.312;2024-02-28T03:40:01;56.27;;;25.87;;
2872;SDS011;1444;49.166;7.312;2024-02-28T03:42:29;56.50;;;25.50;;
2872;SDS011;1444;49.166;7.312;2024-02-28T03:44:56;57.40;;;25.93;;
2872;SDS011;1444;49.166;7.312;2024-02-28T03:47:23;83.63;;;28.93;;
2872;SDS011;1444;49.166;7.312;2024-02-28T03:49:53;54.20;;;24.53;;
2872;SDS011;1444;49.166;7.312;2024-02-28T03:52:22;63.00;;;24.57;;
2872;SDS011;1444;49.166;7.312;2024-02-28T03:54:49;64.37;;;24.70;;
2872;SDS011;1444;49.166;7.312;2024-02-28T03:57:16;75.07;;;27.07;;
2872;SDS011;1444;49.166;7.312;2024-02-28T03:59:42;49.30;;;22.33;;
2872;SDS011;1444;49.166;7.312;2024-02-28T04:02:09;60.77;;;25.93;;
2872;SDS011;1444;49.166;7.312;2024-02-28T04:04:36;90.03;;;31.13;;
2872;SDS011;1444;49.166;7.312;2024-02-28T04:07:05;173.47;;;34.97;;
2872;SDS011;1444;49.166;7.312;2024-02-28T04:09:32;104.20;;;29.10;;
2872;SDS011;1444;49.166;7.312;2024-02-28T04:11:59;64.23;;;25.50;;
2872;SDS011;1444;49.166;7.312;2024-02-28T04:14:25;56.00;;;25.00;;
2872;SDS011;1444;49.166;7.312;2024-02-28T04:16:52;70.00;;;28.67;;
2872;SDS011;1444;49.166;7.312;2024-02-28T04:19:19;66.47;;;30.37;;
2872;SDS011;1444;49.166;7.312;2024-02-28T04:21:46;142.30;;;32.13;;
2872;SDS011;1444;49.166;7.312;2024-02-28T04:24:16;173.93;;;37.00;;
2872;SDS011;1444;49.166;7.312;2024-02-28T04:26:42;291.43;;;44.27;;
2872;SDS011;1444;49.166;7.312;2024-02-28T04:29:11;104.17;;;29.43;;
2872;SDS011;1444;49.166;7.312;2024-02-28T04:31:39;289.83;;;39.43;;
2872;SDS011;1444;49.166;7.312;2024-02-28T04:34:06;423.73;;;55.80;;
2872;SDS011;1444;49.166;7.312;2024-02-28T04:36:33;290.00;;;42.90;;
2872;SDS011;1444;49.166;7.312;2024-02-28T04:39:00;65.00;;;28.13;;
2872;SDS011;1444;49.166;7.312;2024-02-28T04:41:30;87.93;;;28.93;;
2872;SDS011;1444;49.166;7.312;2024-02-28T04:43:58;134.20;;;30.60;;
2872;SDS011;1444;49.166;7.312;2024-02-28T04:46:25;153.47;;;31.47;;
2872;SDS011;1444;49.166;7.312;2024-02-28T04:48:52;147.77;;;32.67;;
2872;SDS011;1444;49.166;7.312;2024-02-28T04:51:19;268.67;;;38.17;;
2872;SDS011;1444;49.166;7.312;2024-02-28T04:53:46;213.83;;;35.50;;
2872;SDS011;1444;49.166;7.312;2024-02-28T04:56:12;344.80;;;43.00;;
2872;SDS011;1444;49.166;7.312;2024-02-28T04:58:41;205.73;;;34.30;;
2872;SDS011;1444;49.166;7.312;2024-02-28T05:01:08;365.43;;;47.57;;
2872;SDS011;1444;49.166;7.312;2024-02-28T05:03:34;322.37;;;44.10;;
2872;SDS011;1444;49.166;7.312;2024-02-28T05:06:01;197.20;;;35.27;;
2872;SDS011;1444;49.166;7.312;2024-02-28T05:08:29;267.97;;;37.00;;
2872;SDS011;1444;49.166;7.312;2024-02-28T05:10:56;213.77;;;35.23;;
2872;SDS011;1444;49.166;7.312;2024-02-28T05:13:22;340.93;;;45.80;;
2872;SDS011;1444;49.166;7.312;2024-02-28T05:15:51;322.83;;;41.63;;
2872;SDS011;1444;49.166;7.312;2024-02-28T05:18:18;526.40;;;69.90;;
2872;SDS011;1444;49.166;7.312;2024-02-28T05:20:45;553.87;;;63.33;;
2872;SDS011;1444;49.166;7.312;2024-02-28T05:23:12;405.47;;;49.60;;
2872;SDS011;1444;49.166;7.312;2024-02-28T05:25:38;226.63;;;35.07;;
2872;SDS011;1444;49.166;7.312;2024-02-28T05:28:05;195.80;;;33.07;;
2872;SDS011;1444;49.166;7.312;2024-02-28T05:30:32;127.50;;;28.70;;
2872;SDS011;1444;49.166;7.312;2024-02-28T05:33:00;383.80;;;54.63;;
2872;SDS011;1444;49.166;7.312;2024-02-28T05:35:27;413.33;;;52.77;;
2872;SDS011;1444;49.166;7.312;2024-02-28T05:37:54;467.07;;;60.93;;
2872;SDS011;1444;49.166;7.312;2024-02-28T05:40:21;469.87;;;58.73;;
2872;SDS011;1444;49.166;7.312;2024-02-28T05:42:48;261.03;;;40.83;;
2872;SDS011;1444;49.166;7.312;2024-02-28T05:45:14;286.57;;;43.03;;
2872;SDS011;1444;49.166;7.312;2024-02-28T05:47:41;297.23;;;40.63;;
2872;SDS011;1444;49.166;7.312;2024-02-28T05:50:10;253.13;;;40.73;;
2872;SDS011;1444;49.166;7.312;2024-02-28T05:52:38;265.20;;;37.80;;
2872;SDS011;1444;49.166;7.312;2024-02-28T05:55:07;178.60;;;36.13;;
2872;SDS011;1444;49.166;7.312;2024-02-28T05:57:34;158.27;;;32.20;;
2872;SDS011;1444;49.166;7.312;2024-02-28T06:00:01;228.50;;;39.30;;
2872;SDS011;1444;49.166;7.312;2024-02-28T06:02:34;273.90;;;38.87;;
2872;SDS011;1444;49.166;7.312;2024-02-28T06:05:02;357.43;;;48.33;;
2872;SDS011;1444;49.166;7.312;2024-02-28T06:07:30;443.20;;;53.97;;
2872;SDS011;1444;49.166;7.312;2024-02-28T06:09:57;280.43;;;42.70;;
2872;SDS011;1444;49.166;7.312;2024-02-28T06:12:24;307.93;;;44.20;;
2872;SDS011;1444;49.166;7.312;2024-02-28T06:14:51;90.93;;;28.30;;
2872;SDS011;1444;49.166;7.312;2024-02-28T06:17:18;96.30;;;26.40;;
2872;SDS011;1444;49.166;7.312;2024-02-28T06:19:46;157.53;;;30.80;;
2872;SDS011;1444;49.166;7.312;2024-02-28T06:22:13;254.37;;;41.27;;
2872;SDS011;1444;49.166;7.312;2024-02-28T06:24:41;318.87;;;46.63;;
2872;SDS011;1444;49.166;7.312;2024-02-28T06:27:08;341.00;;;51.57;;
2872;SDS011;1444;49.166;7.312;2024-02-28T06:29:38;200.60;;;35.87;;
2872;SDS011;1444;49.166;7.312;2024-02-28T06:32:04;356.70;;;51.70;;
2872;SDS011;1444;49.166;7.312;2024-02-28T06:34:32;454.90;;;59.10;;
2872;SDS011;1444;49.166;7.312;2024-02-28T06:36:58;283.70;;;45.00;;
2872;SDS011;1444;49.166;7.312;2024-02-28T06:39:25;266.93;;;43.03;;
2872;SDS011;1444;49.166;7.312;2024-02-28T06:41:53;294.70;;;48.83;;
2872;SDS011;1444;49.166;7.312;2024-02-28T06:44:20;175.30;;;35.50;;
2872;SDS011;1444;49.166;7.312;2024-02-28T06:46:47;367.40;;;52.00;;
2872;SDS011;1444;49.166;7.312;2024-02-28T06:49:14;240.93;;;41.27;;
2872;SDS011;1444;49.166;7.312;2024-02-28T06:51:41;554.57;;;69.13;;
2872;SDS011;1444;49.166;7.312;2024-02-28T06:54:09;178.10;;;38.40;;
2872;SDS011;1444;49.166;7.312;2024-02-28T06:56:38;253.40;;;39.50;;
2872;SDS011;1444;49.166;7.312;2024-02-28T06:59:07;210.17;;;34.93;;
2872;SDS011;1444;49.166;7.312;2024-02-28T07:01:34;158.17;;;31.63;;
2872;SDS011;1444;49.166;7.312;2024-02-28T07:04:00;188.83;;;35.37;;
2872;SDS011;1444;49.166;7.312;2024-02-28T07:06:28;179.80;;;32.90;;
2872;SDS011;1444;49.166;7.312;2024-02-28T07:08:54;91.47;;;29.60;;
2872;SDS011;1444;49.166;7.312;2024-02-28T07:11:21;226.33;;;35.50;;
2872;SDS011;1444;49.166;7.312;2024-02-28T07:13:48;112.57;;;28.13;;
2872;SDS011;1444;49.166;7.312;2024-02-28T07:16:17;109.00;;;27.97;;
2872;SDS011;1444;49.166;7.312;2024-02-28T07:18:43;120.27;;;30.00;;
2872;SDS011;1444;49.166;7.312;2024-02-28T07:21:10;159.03;;;30.07;;
2872;SDS011;1444;49.166;7.312;2024-02-28T07:23:38;166.73;;;31.30;;
2872;SDS011;1444;49.166;7.312;2024-02-28T07:26:06;164.33;;;31.37;;
2872;SDS011;1444;49.166;7.312;2024-02-28T07:28:33;107.23;;;26.17;;
2872;SDS011;1444;49.166;7.312;2024-02-28T07:31:00;105.17;;;27.50;;
2872;SDS011;1444;49.166;7.312;2024-02-28T07:33:28;110.73;;;27.07;;
2872;SDS011;1444;49.166;7.312;2024-02-28T07:35:55;125.30;;;27.10;;
2872;SDS011;1444;49.166;7.312;2024-02-28T07:38:25;209.43;;;34.10;;
2872;SDS011;1444;49.166;7.312;2024-02-28T07:40:53;89.60;;;27.00;;
2872;SDS011;1444;49.166;7.312;2024-02-28T07:43:20;90.60;;;28.00;;
2872;SDS011;1444;49.166;7.312;2024-02-28T07:45:47;165.50;;;31.80;;
2872;SDS011;1444;49.166;7.312;2024-02-28T07:48:13;119.27;;;27.77;;
2872;SDS011;1444;49.166;7.312;2024-02-28T07:50:43;126.07;;;28.40;;
2872;SDS011;1444;49.166;7.312;2024-02-28T07:53:10;81.53;;;22.20;;
2872;SDS011;1444;49.166;7.312;2024-02-28T07:55:38;90.30;;;27.47;;
2872;SDS011;1444;49.166;7.312;2024-02-28T07:58:05;132.60;;;28.87;;
2872;SDS011;1444;49.166;7.312;2024-02-28T08:00:32;94.30;;;24.57;;
2872;SDS011;1444;49.166;7.312;2024-02-28T08:02:59;82.87;;;26.27;;
2872;SDS011;1444;49.166;7.312;2024-02-28T08:05:26;95.43;;;25.07;;
2872;SDS011;1444;49.166;7.312;2024-02-28T08:07:54;64.47;;;23.37;;
2872;SDS011;1444;49.166;7.312;2024-02-28T08:10:21;91.37;;;25.57;;
2872;SDS011;1444;49.166;7.312;2024-02-28T08:12:48;103.73;;;25.23;;
2872;SDS011;1444;49.166;7.312;2024-02-28T08:15:14;96.80;;;24.83;;
2872;SDS011;1444;49.166;7.312;2024-02-28T08:17:41;69.83;;;25.77;;
2872;SDS011;1444;49.166;7.312;2024-02-28T08:20:09;95.03;;;25.77;;
2872;SDS011;1444;49.166;7.312;2024-02-28T08:22:36;91.57;;;21.93;;
2872;SDS011;1444;49.166;7.312;2024-02-28T08:25:05;81.40;;;23.70;;
2872;SDS011;1444;49.166;7.312;2024-02-28T08:27:33;87.53;;;24.30;;
2872;SDS011;1444;49.166;7.312;2024-02-28T08:30:00;111.37;;;27.40;;
2872;SDS011;1444;49.166;7.312;2024-02-28T08:32:27;73.33;;;23.10;;
2872;SDS011;1444;49.166;7.312;2024-02-28T08:34:54;49.17;;;21.50;;
2872;SDS011;1444;49.166;7.312;2024-02-28T08:37:22;60.17;;;22.03;;
2872;SDS011;1444;49.166;7.312;2024-02-28T08:39:53;102.13;;;28.50;;
2872;SDS011;1444;49.166;7.312;2024-02-28T08:42:24;59.70;;;27.20;;
2872;SDS011;1444;49.166;7.312;2024-02-28T08:44:51;64.90;;;26.27;;
2872;SDS011;1444;49.166;7.312;2024-02-28T08:47:22;69.60;;;27.10;;
2872;SDS011;1444;49.166;7.312;2024-02-28T08:49:49;73.83;;;25.93;;
2872;SDS011;1444;49.166;7.312;2024-02-28T08:52:16;69.70;;;27.93;;
2872;SDS011;1444;49.166;7.312;2024-02-28T08:54:44;75.57;;;25.47;;
2872;SDS011;1444;49.166;7.312;2024-02-28T08:57:10;87.83;;;25.70;;
2872;SDS011;1444;49.166;7.312;2024-02-28T08:59:39;62.73;;;24.47;;
2872;SDS011;1444;49.166;7.312;2024-02-28T09:02:06;69.57;;;27.23;;
2872;SDS011;1444;49.166;7.312;2024-02-28T09:04:33;94.50;;;29.67;;
2872;SDS011;1444;49.166;7.312;2024-02-28T09:07:00;76.97;;;27.07;;
2872;SDS011;1444;49.166;7.312;2024-02-28T09:09:26;72.43;;;27.93;;
2872;SDS011;1444;49.166;7.312;2024-02-28T09:11:55;74.17;;;27.53;;
2872;SDS011;1444;49.166;7.312;2024-02-28T09:14:22;68.73;;;24.13;;
2872;SDS011;1444;49.166;7.312;2024-02-28T09:16:50;72.27;;;25.53;;
2872;SDS011;1444;49.166;7.312;2024-02-28T09:19:17;89.43;;;32.47;;
2872;SDS011;1444;49.166;7.312;2024-02-28T09:21:43;79.97;;;27.77;;
2872;SDS011;1444;49.166;7.312;2024-02-28T09:24:12;84.23;;;30.87;;
2872;SDS011;1444;49.166;7.312;2024-02-28T09:26:39;60.30;;;23.70;;
2872;SDS011;1444;49.166;7.312;2024-02-28T09:29:06;62.97;;;25.33;;
2872;SDS011;1444;49.166;7.312;2024-02-28T09:31:32;93.97;;;30.93;;
2872;SDS011;1444;49.166;7.312;2024-02-28T09:34:01;72.00;;;27.07;;
2872;SDS011;1444;49.166;7.312;2024-02-28T09:36:32;60.43;;;26.30;;
2872;SDS011;1444;49.166;7.312;2024-02-28T09:38:59;96.37;;;26.23;;
2872;SDS011;1444;49.166;7.312;2024-02-28T09:41:26;68.10;;;25.47;;
2872;SDS011;1444;49.166;7.312;2024-02-28T09:43:53;68.33;;;27.77;;
2872;SDS011;1444;49.166;7.312;2024-02-28T09:46:21;71.17;;;26.47;;
2872;SDS011;1444;49.166;7.312;2024-02-28T09:48:47;67.70;;;28.50;;
2872;SDS011;1444;49.166;7.312;2024-02-28T09:51:17;68.30;;;26.63;;
2872;SDS011;1444;49.166;7.312;2024-02-28T09:53:48;64.80;;;23.80;;
2872;SDS011;1444;49.166;7.312;2024-02-28T09:56:15;56.77;;;26.17;;
2872;SDS011;1444;49.166;7.312;2024-02-28T09:58:43;64.83;;;25.60;;
2872;SDS011;1444;49.166;7.312;2024-02-28T10:01:11;66.10;;;26.10;;
2872;SDS011;1444;49.166;7.312;2024-02-28T10:03:41;72.20;;;30.20;;
2872;SDS011;1444;49.166;7.312;2024-02-28T10:06:10;93.63;;;28.07;;
2872;SDS011;1444;49.166;7.312;2024-02-28T10:08:40;73.67;;;27.90;;
2872;SDS011;1444;49.166;7.312;2024-02-28T10:11:06;59.33;;;27.10;;
2872;SDS011;1444;49.166;7.312;2024-02-28T10:13:33;69.33;;;28.43;;
2872;SDS011;1444;49.166;7.312;2024-02-28T10:16:02;63.23;;;28.03;;
2872;SDS011;1444;49.166;7.312;2024-02-28T10:18:29;67.53;;;28.73;;
2872;SDS011;1444;49.166;7.312;2024-02-28T10:20:56;73.57;;;29.80;;
2872;SDS011;1444;49.166;7.312;2024-02-28T10:23:23;70.70;;;27.83;;
2872;SDS011;1444;49.166;7.312;2024-02-28T10:25:53;71.47;;;28.33;;
2872;SDS011;1444;49.166;7.312;2024-02-28T10:28:21;70.20;;;31.23;;
2872;SDS011;1444;49.166;7.312;2024-02-28T10:30:47;62.43;;;27.53;;
2872;SDS011;1444;49.166;7.312;2024-02-28T10:33:15;72.87;;;30.00;;
2872;SDS011;1444;49.166;7.312;2024-02-28T10:35:42;73.63;;;28.50;;
2872;SDS011;1444;49.166;7.312;2024-02-28T10:38:10;70.13;;;30.23;;
2872;SDS011;1444;49.166;7.312;2024-02-28T10:40:37;86.90;;;30.10;;
2872;SDS011;1444;49.166;7.312;2024-02-28T10:43:07;65.43;;;29.70;;
2872;SDS011;1444;49.166;7.312;2024-02-28T10:45:35;65.10;;;29.30;;
2872;SDS011;1444;49.166;7.312;2024-02-28T10:48:03;75.47;;;30.77;;
2872;SDS011;1444;49.166;7.312;2024-02-28T10:50:31;87.63;;;31.73;;
2872;SDS011;1444;49.166;7.312;2024-02-28T10:52:58;75.57;;;31.73;;
2872;SDS011;1444;49.166;7.312;2024-02-28T10:55:31;69.83;;;29.60;;
2872;SDS011;1444;49.166;7.312;2024-02-28T10:58:01;68.23;;;27.87;;
2872;SDS011;1444;49.166;7.312;2024-02-28T11:00:31;70.60;;;31.60;;
2872;SDS011;1444;49.166;7.312;2024-02-28T11:02:58;78.40;;;33.00;;
2872;SDS011;1444;49.166;7.312;2024-02-28T11:05:35;77.90;;;31.83;;
2872;SDS011;1444;49.166;7.312;2024-02-28T11:08:03;89.30;;;31.23;;
2872;SDS011;1444;49.166;7.312;2024-02-28T11:10:31;61.73;;;27.27;;
2872;SDS011;1444;49.166;7.312;2024-02-28T11:12:58;64.30;;;28.10;;
2872;SDS011;1444;49.166;7.312;2024-02-28T11:15:25;62.93;;;30.73;;
2872;SDS011;1444;49.166;7.312;2024-02-28T11:17:54;62.97;;;27.67;;
2872;SDS011;1444;49.166;7.312;2024-02-28T11:20:21;58.87;;;27.00;;
2872;SDS011;1444;49.166;7.312;2024-02-28T11:22:48;65.60;;;27.97;;
2872;SDS011;1444;49.166;7.312;2024-02-28T11:25:23;61.50;;;28.13;;
2872;SDS011;1444;49.166;7.312;2024-02-28T11:27:50;58.00;;;26.90;;
2872;SDS011;1444;49.166;7.312;2024-02-28T11:30:16;56.20;;;27.37;;
2872;SDS011;1444;49.166;7.312;2024-02-28T11:32:44;62.13;;;29.10;;
2872;SDS011;1444;49.166;7.312;2024-02-28T11:35:12;69.20;;;29.30;;
2872;SDS011;1444;49.166;7.312;2024-02-28T11:37:45;55.10;;;25.00;;
2872;SDS011;1444;49.166;7.312;2024-02-28T11:40:12;59.90;;;28.63;;
2872;SDS011;1444;49.166;7.312;2024-02-28T11:42:39;67.03;;;29.80;;
2872;SDS011;1444;49.166;7.312;2024-02-28T11:45:09;62.23;;;27.80;;
2872;SDS011;1444;49.166;7.312;2024-02-28T11:47:36;63.37;;;30.57;;
2872;SDS011;1444;49.166;7.312;2024-02-28T11:50:03;55.47;;;28.40;;
2872;SDS011;1444;49.166;7.312;2024-02-28T11:52:33;61.03;;;29.10;;
2872;SDS011;1444;49.166;7.312;2024-02-28T11:55:00;60.33;;;28.77;;
2872;SDS011;1444;49.166;7.312;2024-02-28T11:57:27;53.80;;;26.97;;
2872;SDS011;1444;49.166;7.312;2024-02-28T11:59:58;60.27;;;30.00;;
2872;SDS011;1444;49.166;7.312;2024-02-28T12:02:29;58.77;;;28.27;;
2872;SDS011;1444;49.166;7.312;2024-02-28T12:05:00;62.07;;;27.73;;
2872;SDS011;1444;49.166;7.312;2024-02-28T12:07:27;60.73;;;28.20;;
2872;SDS011;1444;49.166;7.312;2024-02-28T12:09:55;66.23;;;28.33;;
2872;SDS011;1444;49.166;7.312;2024-02-28T12:12:23;60.30;;;30.00;;
2872;SDS011;1444;49.166;7.312;2024-02-28T12:14:50;61.53;;;25.93;;
2872;SDS011;1444;49.166;7.312;2024-02-28T12:17:17;61.03;;;28.07;;
2872;SDS011;1444;49.166;7.312;2024-02-28T12:19:44;51.00;;;26.23;;
2872;SDS011;1444;49.166;7.312;2024-02-28T12:22:11;52.30;;;27.90;;
2872;SDS011;1444;49.166;7.312;2024-02-28T12:24:38;50.93;;;24.60;;
2872;SDS011;1444;49.166;7.312;2024-02-28T12:27:06;56.73;;;27.67;;
2872;SDS011;1444;49.166;7.312;2024-02-28T12:29:33;50.60;;;26.07;;
2872;SDS011;1444;49.166;7.312;2024-02-28T12:32:00;59.90;;;28.23;;
2872;SDS011;1444;49.166;7.312;2024-02-28T12:34:27;48.17;;;27.20;;
2872;SDS011;1444;49.166;7.312;2024-02-28T12:36:53;47.80;;;23.87;;
2872;SDS011;1444;49.166;7.312;2024-02-28T12:39:20;45.57;;;24.87;;
2872;SDS011;1444;49.166;7.312;2024-02-28T12:41:47;46.50;;;23.93;;
2872;SDS011;1444;49.166;7.312;2024-02-28T12:44:16;49.90;;;24.53;;
2872;SDS011;1444;49.166;7.312;2024-02-28T12:46:42;54.77;;;28.30;;
2872;SDS011;1444;49.166;7.312;2024-02-28T12:49:09;56.13;;;29.23;;
2872;SDS011;1444;49.166;7.312;2024-02-28T12:51:37;48.30;;;24.97;;
2872;SDS011;1444;49.166;7.312;2024-02-28T12:54:06;44.90;;;24.73;;
2872;SDS011;1444;49.166;7.312;2024-02-28T12:56:34;50.97;;;29.20;;
2872;SDS011;1444;49.166;7.312;2024-02-28T12:59:01;46.50;;;24.83;;
2872;SDS011;1444;49.166;7.312;2024-02-28T13:01:29;55.13;;;26.93;;
2872;SDS011;1444;49.166;7.312;2024-02-28T13:03:56;46.50;;;24.73;;
2872;SDS011;1444;49.166;7.312;2024-02-28T13:06:23;53.70;;;26.93;;
2872;SDS011;1444;49.166;7.312;2024-02-28T13:08:50;41.97;;;22.73;;
2872;SDS011;1444;49.166;7.312;2024-02-28T13:11:21;39.43;;;23.03;;
2872;SDS011;1444;49.166;7.312;2024-02-28T13:13:48;36.27;;;21.47;;
2872;SDS011;1444;49.166;7.312;2024-02-28T13:16:16;42.17;;;22.70;;
2872;SDS011;1444;49.166;7.312;2024-02-28T13:18:45;47.47;;;21.83;;
2872;SDS011;1444;49.166;7.312;2024-02-28T13:21:12;31.80;;;20.10;;
2872;SDS011;1444;49.166;7.312;2024-02-28T13:23:39;35.60;;;21.20;;
2872;SDS011;1444;49.166;7.312;2024-02-28T13:26:06;35.30;;;20.40;;
2872;SDS011;1444;49.166;7.312;2024-02-28T13:28:33;35.17;;;19.13;;
2872;SDS011;1444;49.166;7.312;2024-02-28T13:31:01;34.10;;;18.50;;
2872;SDS011;1444;49.166;7.312;2024-02-28T13:33:30;30.13;;;17.33;;
2872;SDS011;1444;49.166;7.312;2024-02-28T13:35:58;26.17;;;14.40;;
2872;SDS011;1444;49.166;7.312;2024-02-28T13:38:25;19.03;;;13.47;;
2872;SDS011;1444;49.166;7.312;2024-02-28T13:40:52;26.43;;;14.57;;
2872;SDS011;1444;49.166;7.312;2024-02-28T13:43:18;23.07;;;15.13;;
2872;SDS011;1444;49.166;7.312;2024-02-28T13:45:46;20.00;;;13.37;;
2872;SDS011;1444;49.166;7.312;2024-02-28T13:48:15;22.73;;;12.60;;
2872;SDS011;1444;49.166;7.312;2024-02-28T13:50:43;23.43;;;13.13;;
2872;SDS011;1444;49.166;7.312;2024-02-28T13:53:12;43.43;;;15.63;;
2872;SDS011;1444;49.166;7.312;2024-02-28T13:55:40;22.50;;;15.17;;
2872;SDS011;1444;49.166;7.312;2024-02-28T13:58:07;18.40;;;12.57;;
2872;SDS011;1444;49.166;7.312;2024-02-28T14:00:35;38.17;;;14.93;;
2872;SDS011;1444;49.166;7.312;2024-02-28T14:03:03;19.50;;;12.97;;
2872;SDS011;1444;49.166;7.312;2024-02-28T14:05:31;22.20;;;13.90;;
2872;SDS011;1444;49.166;7.312;2024-02-28T14:07:58;27.63;;;14.03;;
2872;SDS011;1444;49.166;7.312;2024-02-28T14:10:26;20.10;;;12.50;;
2872;SDS011;1444;49.166;7.312;2024-02-28T14:12:53;20.07;;;13.10;;
2872;SDS011;1444;49.166;7.312;2024-02-28T14:15:20;24.17;;;12.30;;
2872;SDS011;1444;49.166;7.312;2024-02-28T14:17:48;16.77;;;11.30;;
2872;SDS011;1444;49.166;7.312;2024-02-28T14:20:16;17.23;;;11.57;;
2872;SDS011;1444;49.166;7.312;2024-02-28T14:22:43;16.93;;;11.07;;
2872;SDS011;1444;49.166;7.312;2024-02-28T14:25:10;16.27;;;11.70;;
2872;SDS011;1444;49.166;7.312;2024-02-28T14:27:40;25.53;;;11.10;;
2872;SDS011;1444;49.166;7.312;2024-02-28T14:30:08;15.80;;;10.27;;
2872;SDS011;1444;49.166;7.312;2024-02-28T14:32:36;18.23;;;11.00;;
2872;SDS011;1444;49.166;7.312;2024-02-28T14:35:04;28.30;;;13.07;;
2872;SDS011;1444;49.166;7.312;2024-02-28T14:37:31;14.67;;;10.13;;
2872;SDS011;1444;49.166;7.312;2024-02-28T14:39:59;20.60;;;11.67;;
2872;SDS011;1444;49.166;7.312;2024-02-28T14:42:26;21.63;;;12.03;;
2872;SDS011;1444;49.166;7.312;2024-02-28T14:44:54;21.50;;;14.23;;